Terminal Aerodrome Forecast
Issued by NWS

Home | Current Version | Previous Version | Text Only | Print | Product List | Glossary On
Versions: 1 2 3 4 5 6 7 8 9 10 11 12 13 14 15 16
000
FTUS46 KMFR 290557
TAFOTH
TAF
KOTH 290557Z 2906/3006 15008KT P6SM VCSH BKN040 OVC120
     FM290900 17012G22KT 3SM RA BKN015 OVC025 WS020/21050KT
     FM291300 19030G40KT 3SM -SHRA SCT015 BKN025 OVC040
     FM291900 19020G30KT P6SM -SHRA BKN020 BKN080=

USA.gov is the U.S. government's official web portal to all federal, state and local government web resources and services.